createdAt,value
2017-02-21T00:00:13.587Z,0
2017-02-21T00:00:54.158Z,0
2017-02-21T00:01:34.740Z,0
2017-02-21T00:02:15.316Z,0
2017-02-21T00:02:55.891Z,0
2017-02-21T00:03:36.483Z,0
2017-02-21T00:04:17.055Z,0
2017-02-21T00:04:57.622Z,0
2017-02-21T00:05:38.199Z,0
2017-02-21T00:06:18.766Z,0
2017-02-21T00:06:59.336Z,0
2017-02-21T00:07:39.907Z,0
2017-02-21T00:08:20.475Z,0
2017-02-21T00:09:01.049Z,0
2017-02-21T00:09:41.619Z,0
2017-02-21T00:10:22.199Z,0
2017-02-21T00:11:02.785Z,0
2017-02-21T00:11:43.393Z,0
2017-02-21T00:12:23.985Z,0
2017-02-21T00:13:04.592Z,0
2017-02-21T00:13:45.169Z,0
2017-02-21T00:14:25.743Z,0
2017-02-21T00:15:06.323Z,0
2017-02-21T00:15:46.887Z,0
2017-02-21T00:16:27.483Z,0
2017-02-21T00:17:08.059Z,0
2017-02-21T00:17:48.646Z,0
2017-02-21T00:18:29.229Z,0
2017-02-21T00:19:09.811Z,0
2017-02-21T00:19:50.407Z,0
2017-02-21T00:20:30.993Z,0
2017-02-21T00:21:11.586Z,0
2017-02-21T00:21:52.164Z,0
2017-02-21T00:22:32.740Z,0
2017-02-21T00:23:13.322Z,0
2017-02-21T00:23:53.898Z,0
2017-02-21T00:24:34.474Z,0
2017-02-21T00:25:15.060Z,0
2017-02-21T00:25:55.630Z,0
2017-02-21T00:26:36.206Z,0
2017-02-21T00:27:16.779Z,0
2017-02-21T00:27:57.384Z,0
2017-02-21T00:28:37.949Z,0
2017-02-21T00:29:18.513Z,0
2017-02-21T00:29:59.120Z,0
2017-02-21T00:30:39.690Z,0
2017-02-21T00:31:20.253Z,0
2017-02-21T00:32:00.836Z,0
2017-02-21T00:32:41.396Z,0
2017-02-21T00:33:22.011Z,0
2017-02-21T00:34:02.568Z,0
2017-02-21T00:34:43.141Z,0
2017-02-21T00:35:23.714Z,0
2017-02-21T00:36:04.299Z,0
2017-02-21T00:36:44.858Z,0
2017-02-21T00:37:25.424Z,0
2017-02-21T00:38:05.994Z,0
2017-02-21T00:38:46.562Z,0
2017-02-21T00:39:27.130Z,0
2017-02-21T00:40:07.707Z,0
2017-02-21T00:40:48.290Z,0
2017-02-21T00:41:28.888Z,0
2017-02-21T00:42:09.451Z,0
2017-02-21T00:42:50.071Z,0
2017-02-21T00:43:30.649Z,0
2017-02-21T00:44:11.228Z,0
2017-02-21T00:44:51.816Z,0
2017-02-21T00:45:32.411Z,0
2017-02-21T00:46:12.999Z,0
2017-02-21T00:46:53.573Z,0
2017-02-21T00:47:34.139Z,0
2017-02-21T00:48:14.757Z,0
2017-02-21T00:48:55.348Z,0
2017-02-21T00:49:35.926Z,0
2017-02-21T00:50:16.512Z,0
2017-02-21T00:50:57.083Z,0
2017-02-21T00:51:37.680Z,0
2017-02-21T00:52:18.245Z,0
2017-02-21T00:52:58.848Z,0
2017-02-21T00:53:39.421Z,0
2017-02-21T00:54:20.010Z,0
2017-02-21T00:55:00.565Z,0
2017-02-21T00:55:41.140Z,0
2017-02-21T00:56:21.713Z,0
2017-02-21T00:57:02.290Z,0
2017-02-21T00:57:42.874Z,0
2017-02-21T00:58:23.468Z,0
2017-02-21T00:59:04.051Z,0
2017-02-21T00:59:44.634Z,0
2017-02-21T01:00:25.222Z,0
2017-02-21T01:01:05.829Z,0
2017-02-21T01:01:46.436Z,0
2017-02-21T01:02:27.050Z,0
2017-02-21T01:03:07.629Z,0
2017-02-21T01:03:48.205Z,0
2017-02-21T01:04:28.787Z,0
2017-02-21T01:05:09.357Z,0
2017-02-21T01:05:49.929Z,0
2017-02-21T01:06:30.509Z,0
2017-02-21T01:07:11.076Z,0
2017-02-21T01:07:51.678Z,0
2017-02-21T01:08:32.268Z,0
2017-02-21T01:09:12.840Z,0
2017-02-21T01:09:53.427Z,0
2017-02-21T01:10:34.004Z,0
2017-02-21T01:11:14.615Z,0
2017-02-21T01:11:55.182Z,0
2017-02-21T01:12:35.755Z,0
2017-02-21T01:13:16.332Z,0
2017-02-21T01:13:56.927Z,0
2017-02-21T01:14:37.500Z,0
2017-02-21T01:15:18.085Z,0
2017-02-21T01:15:58.654Z,0
2017-02-21T01:16:39.240Z,0
2017-02-21T01:17:19.811Z,0
2017-02-21T01:18:00.396Z,0
2017-02-21T01:18:40.976Z,0
2017-02-21T01:19:21.546Z,0
2017-02-21T01:20:02.126Z,0
2017-02-21T01:20:42.698Z,0
2017-02-21T01:21:23.283Z,0
2017-02-21T01:22:03.866Z,0
2017-02-21T01:22:44.445Z,0
2017-02-21T01:23:25.041Z,0
2017-02-21T01:24:05.637Z,0
2017-02-21T01:24:46.205Z,0
2017-02-21T01:25:26.774Z,0
2017-02-21T01:26:07.350Z,0
2017-02-21T01:26:47.913Z,0
2017-02-21T01:27:28.482Z,0
2017-02-21T01:28:09.083Z,0
2017-02-21T01:28:49.676Z,0
2017-02-21T01:29:30.251Z,0
2017-02-21T01:30:10.828Z,0
2017-02-21T01:30:51.421Z,0
2017-02-21T01:31:31.990Z,0
2017-02-21T01:32:12.630Z,0
2017-02-21T01:32:53.209Z,0
2017-02-21T01:33:33.805Z,0
2017-02-21T01:34:14.382Z,0
2017-02-21T01:34:54.953Z,0
2017-02-21T01:35:35.525Z,0
2017-02-21T01:36:16.096Z,0
2017-02-21T01:36:56.668Z,0
2017-02-21T01:37:37.328Z,0
2017-02-21T01:38:17.861Z,0
2017-02-21T01:38:58.447Z,0
2017-02-21T01:39:39.016Z,0
2017-02-21T01:40:19.591Z,0
2017-02-21T01:41:00.167Z,0
2017-02-21T01:41:40.743Z,0
2017-02-21T01:42:21.376Z,0
2017-02-21T01:43:01.963Z,0
2017-02-21T01:43:42.620Z,0
2017-02-21T01:44:23.223Z,0
2017-02-21T01:45:03.804Z,0
2017-02-21T01:45:44.375Z,0
2017-02-21T01:46:24.959Z,0
2017-02-21T01:47:05.533Z,0
2017-02-21T01:47:46.090Z,0
2017-02-21T01:48:26.648Z,0
2017-02-21T01:49:07.233Z,0
2017-02-21T01:49:47.829Z,0
2017-02-21T01:50:28.418Z,0
2017-02-21T01:51:08.982Z,0
2017-02-21T01:51:49.556Z,0
2017-02-21T01:52:30.143Z,0
2017-02-21T01:53:10.726Z,0
2017-02-21T01:53:51.320Z,0
2017-02-21T01:54:31.894Z,0
2017-02-21T01:55:12.481Z,0
2017-02-21T01:55:53.053Z,0
2017-02-21T01:56:33.630Z,0
2017-02-21T01:57:14.228Z,0
2017-02-21T01:57:54.835Z,0
2017-02-21T01:58:35.413Z,0
2017-02-21T01:59:15.987Z,0
2017-02-21T01:59:56.586Z,0
2017-02-21T02:00:37.167Z,0
2017-02-21T02:01:17.741Z,0
2017-02-21T02:01:58.339Z,0
2017-02-21T02:02:38.957Z,0
2017-02-21T02:03:19.538Z,0
2017-02-21T02:04:00.114Z,0
2017-02-21T02:04:40.715Z,0
2017-02-21T02:05:21.290Z,0
2017-02-21T02:06:01.883Z,0
2017-02-21T02:06:42.452Z,0
2017-02-21T02:07:23.039Z,0
2017-02-21T02:08:03.618Z,0
2017-02-21T02:08:44.195Z,0
2017-02-21T02:09:24.776Z,0
2017-02-21T02:10:05.337Z,0
2017-02-21T02:10:45.923Z,0
2017-02-21T02:11:26.498Z,0
2017-02-21T02:12:07.067Z,0
2017-02-21T02:12:47.695Z,0
2017-02-21T02:13:28.284Z,0
2017-02-21T02:14:08.873Z,0
2017-02-21T02:14:49.468Z,0
2017-02-21T02:15:30.050Z,0
2017-02-21T02:16:10.639Z,0
2017-02-21T02:16:51.246Z,0
2017-02-21T02:17:31.817Z,0
2017-02-21T02:18:12.391Z,0
2017-02-21T02:18:52.968Z,0
2017-02-21T02:19:33.573Z,0
2017-02-21T02:20:14.150Z,0
2017-02-21T02:20:54.731Z,0
2017-02-21T02:21:35.308Z,0
2017-02-21T02:22:15.902Z,0
2017-02-21T02:22:56.471Z,0
2017-02-21T02:23:37.042Z,0
2017-02-21T02:24:17.632Z,0
2017-02-21T02:24:58.219Z,0
2017-02-21T02:25:38.800Z,0
2017-02-21T02:26:19.367Z,0
2017-02-21T02:26:59.999Z,0
2017-02-21T02:27:40.566Z,0
2017-02-21T02:28:21.132Z,0
2017-02-21T02:29:01.748Z,0
2017-02-21T02:29:42.340Z,0
2017-02-21T02:30:22.907Z,0
2017-02-21T02:31:03.481Z,0
2017-02-21T02:31:44.056Z,0
2017-02-21T02:32:24.627Z,0
2017-02-21T02:33:05.195Z,0
2017-02-21T02:33:45.777Z,0
2017-02-21T02:34:26.357Z,0
2017-02-21T02:35:06.930Z,0
2017-02-21T02:35:47.517Z,0
2017-02-21T02:36:28.083Z,0
2017-02-21T02:37:08.664Z,0
2017-02-21T02:37:49.236Z,0
2017-02-21T02:38:29.823Z,0
2017-02-21T02:39:10.414Z,0
2017-02-21T02:39:51.002Z,0
2017-02-21T02:40:31.580Z,0
2017-02-21T02:41:12.156Z,0
2017-02-21T02:41:52.744Z,0
2017-02-21T02:42:33.328Z,0
2017-02-21T02:43:13.895Z,0
2017-02-21T02:43:54.463Z,0
2017-02-21T02:44:35.054Z,0
2017-02-21T02:45:15.633Z,0
2017-02-21T02:45:56.200Z,0
2017-02-21T02:46:36.782Z,0
2017-02-21T02:47:17.354Z,0
2017-02-21T02:47:57.956Z,0
2017-02-21T02:48:38.530Z,0
2017-02-21T02:49:19.119Z,0
2017-02-21T02:49:59.708Z,0
2017-02-21T02:50:40.295Z,0
2017-02-21T02:51:20.889Z,0
2017-02-21T02:52:01.466Z,0
2017-02-21T02:52:42.049Z,0
2017-02-21T02:53:22.611Z,0
2017-02-21T02:54:03.227Z,0
2017-02-21T02:54:43.828Z,0
2017-02-21T02:55:24.400Z,0
2017-02-21T02:56:04.975Z,0
2017-02-21T02:56:45.564Z,0
2017-02-21T02:57:26.147Z,0
2017-02-21T02:58:06.725Z,0
2017-02-21T02:58:47.301Z,0
2017-02-21T02:59:27.881Z,0
2017-02-21T03:00:08.459Z,0
2017-02-21T03:00:49.088Z,0
2017-02-21T03:01:29.621Z,0
2017-02-21T03:02:10.238Z,0
2017-02-21T03:02:50.769Z,0
2017-02-21T03:03:31.356Z,0
2017-02-21T03:04:11.939Z,0
2017-02-21T03:04:52.578Z,0
2017-02-21T03:05:33.150Z,0
2017-02-21T03:06:13.778Z,0
2017-02-21T03:06:54.347Z,0
2017-02-21T03:07:34.924Z,0
2017-02-21T03:08:15.494Z,0
2017-02-21T03:08:56.102Z,0
2017-02-21T03:09:36.720Z,0
2017-02-21T03:10:17.313Z,0
2017-02-21T03:10:57.907Z,0
2017-02-21T03:11:38.533Z,0
2017-02-21T03:12:19.104Z,0
2017-02-21T03:12:59.672Z,0
2017-02-21T03:13:40.267Z,0
2017-02-21T03:14:20.854Z,0
2017-02-21T03:15:01.429Z,0
2017-02-21T03:15:42.012Z,0
2017-02-21T03:16:22.666Z,0
2017-02-21T03:17:03.283Z,0
2017-02-21T03:17:43.882Z,0
2017-02-21T03:18:24.467Z,0
2017-02-21T03:19:05.044Z,0
2017-02-21T03:19:45.632Z,0
2017-02-21T03:20:26.200Z,0
2017-02-21T03:21:06.791Z,0
2017-02-21T03:21:47.384Z,0
2017-02-21T03:22:27.990Z,0
2017-02-21T03:23:08.557Z,0
2017-02-21T03:23:49.160Z,0
2017-02-21T03:24:29.755Z,0
2017-02-21T03:25:10.321Z,0
2017-02-21T03:25:50.920Z,0
2017-02-21T03:26:31.507Z,0
2017-02-21T03:27:12.096Z,0
2017-02-21T03:27:52.659Z,0
2017-02-21T03:28:33.234Z,0
2017-02-21T03:29:13.802Z,0
2017-02-21T03:29:54.379Z,0
2017-02-21T03:30:34.958Z,0
2017-02-21T03:31:15.533Z,0
2017-02-21T03:31:56.115Z,0
2017-02-21T03:32:36.692Z,0
2017-02-21T03:33:17.270Z,0
2017-02-21T03:33:57.844Z,0
2017-02-21T03:34:38.416Z,0
2017-02-21T03:35:18.992Z,0
2017-02-21T03:35:59.588Z,0
2017-02-21T03:36:40.169Z,0
2017-02-21T03:37:20.758Z,0
2017-02-21T03:38:01.347Z,0
2017-02-21T03:38:41.947Z,0
2017-02-21T03:39:22.533Z,0
2017-02-21T03:40:03.106Z,0
2017-02-21T03:40:43.677Z,0
2017-02-21T03:41:24.254Z,0
2017-02-21T03:42:04.829Z,0
2017-02-21T03:42:45.406Z,0
2017-02-21T03:43:26.004Z,0
2017-02-21T03:44:06.586Z,0
2017-02-21T03:44:47.174Z,0
2017-02-21T03:45:27.795Z,0
2017-02-21T03:46:08.379Z,0
2017-02-21T03:46:48.958Z,0
2017-02-21T03:47:29.548Z,0
2017-02-21T03:48:10.189Z,0
2017-02-21T03:48:50.786Z,0
2017-02-21T03:49:31.347Z,0
2017-02-21T03:50:11.919Z,0
2017-02-21T03:50:52.509Z,0
2017-02-21T03:51:33.085Z,0
2017-02-21T03:52:13.681Z,0
2017-02-21T03:52:54.360Z,0
2017-02-21T03:53:34.912Z,0
2017-02-21T03:54:15.495Z,0
2017-02-21T03:54:56.074Z,0
2017-02-21T03:55:36.661Z,0
2017-02-21T03:56:17.251Z,0
2017-02-21T03:56:57.824Z,0
2017-02-21T03:57:38.393Z,0
2017-02-21T03:58:18.971Z,0
2017-02-21T03:58:59.539Z,0
2017-02-21T03:59:40.109Z,0
2017-02-21T04:00:20.692Z,0
2017-02-21T04:01:01.313Z,0
2017-02-21T04:01:41.899Z,0
2017-02-21T04:02:22.470Z,0
2017-02-21T04:03:03.047Z,0
2017-02-21T04:03:43.672Z,0
2017-02-21T04:04:24.243Z,0
2017-02-21T04:05:04.823Z,0
2017-02-21T04:05:45.408Z,0
2017-02-21T04:06:25.984Z,0
2017-02-21T04:07:06.551Z,0
2017-02-21T04:07:47.151Z,0
2017-02-21T04:08:27.733Z,0
2017-02-21T04:09:08.310Z,0
2017-02-21T04:09:48.883Z,0
2017-02-21T04:10:29.452Z,0
2017-02-21T04:11:10.017Z,0
2017-02-21T04:11:50.604Z,0
2017-02-21T04:12:31.197Z,0
2017-02-21T04:13:11.798Z,0
2017-02-21T04:13:52.412Z,0
2017-02-21T04:14:33.012Z,0
2017-02-21T04:15:13.582Z,0
2017-02-21T04:15:54.157Z,0
2017-02-21T04:16:34.726Z,0
2017-02-21T04:17:15.336Z,0
2017-02-21T04:17:55.908Z,0
2017-02-21T04:18:36.488Z,0
2017-02-21T04:19:17.062Z,0
2017-02-21T04:19:57.663Z,0
2017-02-21T04:20:38.244Z,0
2017-02-21T04:21:18.821Z,0
2017-02-21T04:21:59.439Z,0
2017-02-21T04:22:40.013Z,0
2017-02-21T04:23:20.603Z,0
2017-02-21T04:24:01.180Z,0
2017-02-21T04:24:41.741Z,0
2017-02-21T04:25:22.325Z,0
2017-02-21T04:26:02.917Z,0
2017-02-21T04:26:43.495Z,0
2017-02-21T04:27:24.074Z,0
2017-02-21T04:28:04.637Z,0
2017-02-21T04:28:45.223Z,0
2017-02-21T04:29:25.785Z,0
2017-02-21T04:30:06.368Z,0
2017-02-21T04:30:46.945Z,0
2017-02-21T04:31:27.520Z,0
2017-02-21T04:32:08.106Z,0
2017-02-21T04:32:48.698Z,0
2017-02-21T04:33:29.275Z,0
2017-02-21T04:34:09.838Z,0
2017-02-21T04:34:50.408Z,0
2017-02-21T04:35:30.991Z,0
2017-02-21T04:36:11.589Z,0
2017-02-21T04:36:52.163Z,0
2017-02-21T04:37:32.754Z,0
2017-02-21T04:38:13.332Z,0
2017-02-21T04:38:53.913Z,0
2017-02-21T04:39:34.495Z,0
2017-02-21T04:40:15.064Z,0
2017-02-21T04:40:55.644Z,0
2017-02-21T04:41:36.221Z,0
2017-02-21T04:42:16.796Z,0
2017-02-21T04:42:57.383Z,0
2017-02-21T04:43:37.945Z,0
2017-02-21T04:44:18.556Z,0
2017-02-21T04:44:59.132Z,0
2017-02-21T04:45:39.749Z,0
2017-02-21T04:46:20.376Z,0
2017-02-21T04:47:00.985Z,0
2017-02-21T04:47:41.609Z,0
2017-02-21T04:48:22.183Z,0
2017-02-21T04:49:03.120Z,0
2017-02-21T04:49:46.327Z,0
2017-02-21T04:50:28.402Z,0
2017-02-21T04:51:10.039Z,0
2017-02-21T04:51:52.909Z,0
2017-02-21T04:52:33.471Z,0
2017-02-21T04:53:14.067Z,0
2017-02-21T04:53:54.650Z,0
2017-02-21T04:54:35.224Z,0
2017-02-21T04:55:15.861Z,0
2017-02-21T04:55:56.426Z,0
2017-02-21T04:56:36.998Z,0
2017-02-21T04:57:17.585Z,0
2017-02-21T04:57:58.185Z,0
2017-02-21T04:58:38.748Z,0
2017-02-21T04:59:19.359Z,0
2017-02-21T04:59:59.940Z,0
2017-02-21T05:00:40.542Z,0
2017-02-21T05:01:21.153Z,0
2017-02-21T05:02:01.730Z,0
2017-02-21T05:02:42.298Z,0
2017-02-21T05:03:22.886Z,0
2017-02-21T05:04:03.459Z,0
2017-02-21T05:04:44.044Z,0
2017-02-21T05:05:24.670Z,0
2017-02-21T05:06:05.241Z,0
2017-02-21T05:06:45.846Z,0
2017-02-21T05:07:26.421Z,0
2017-02-21T05:08:06.990Z,0
2017-02-21T05:08:47.563Z,0
2017-02-21T05:09:28.160Z,0
2017-02-21T05:10:08.758Z,0
2017-02-21T05:10:49.335Z,0
2017-02-21T05:11:29.935Z,0
2017-02-21T05:12:10.514Z,0
2017-02-21T05:12:51.084Z,0
2017-02-21T05:13:31.656Z,0
2017-02-21T05:14:12.240Z,0
2017-02-21T05:14:52.820Z,0
2017-02-21T05:15:33.397Z,0
2017-02-21T05:16:13.979Z,0
2017-02-21T05:16:54.567Z,0
2017-02-21T05:17:35.133Z,0
2017-02-21T05:18:15.732Z,0
2017-02-21T05:18:56.321Z,0
2017-02-21T05:19:36.949Z,0
2017-02-21T05:20:17.556Z,0
2017-02-21T05:20:58.119Z,0
2017-02-21T05:21:38.694Z,0
2017-02-21T05:22:19.272Z,0
2017-02-21T05:22:59.858Z,0
2017-02-21T05:23:40.469Z,0
2017-02-21T05:24:21.069Z,0
2017-02-21T05:25:01.668Z,0
2017-02-21T05:25:42.239Z,0
2017-02-21T05:26:22.831Z,0
2017-02-21T05:27:03.411Z,0
2017-02-21T05:27:44.000Z,0
2017-02-21T05:28:24.575Z,0
2017-02-21T05:29:05.148Z,0
2017-02-21T05:31:38.346Z,0
2017-02-21T05:32:18.906Z,0
2017-02-21T05:32:59.507Z,0
2017-02-21T05:33:40.082Z,0
2017-02-21T05:34:20.657Z,0
2017-02-21T05:35:01.238Z,0
2017-02-21T05:35:41.826Z,0
2017-02-21T05:36:22.405Z,0
2017-02-21T05:37:02.995Z,0
2017-02-21T05:37:43.573Z,0
2017-02-21T05:38:24.122Z,0
2017-02-21T05:39:04.708Z,0
2017-02-21T05:39:45.307Z,0
2017-02-21T05:40:25.890Z,0
2017-02-21T05:41:06.483Z,0
2017-02-21T05:41:47.078Z,0
2017-02-21T05:42:27.665Z,0
2017-02-21T05:43:08.280Z,0
2017-02-21T05:43:48.867Z,0
2017-02-21T05:44:29.447Z,0
2017-02-21T05:45:10.015Z,0
2017-02-21T05:45:50.587Z,0
2017-02-21T05:46:31.147Z,0
2017-02-21T05:47:11.750Z,0
2017-02-21T05:47:52.333Z,0
2017-02-21T05:48:32.894Z,0
2017-02-21T05:49:13.484Z,0
2017-02-21T05:49:54.066Z,0
2017-02-21T05:50:34.624Z,0
2017-02-21T05:51:15.211Z,0
2017-02-21T05:51:55.780Z,0
2017-02-21T05:52:36.372Z,0
2017-02-21T05:53:16.967Z,0
2017-02-21T05:53:57.536Z,0
2017-02-21T05:54:38.127Z,0
2017-02-21T05:55:18.726Z,0
2017-02-21T05:55:59.288Z,0
2017-02-21T05:56:39.880Z,0
2017-02-21T05:57:20.638Z,0
2017-02-21T05:58:01.253Z,0
2017-02-21T05:58:41.816Z,0
2017-02-21T05:59:22.393Z,0
2017-02-21T06:00:02.978Z,0
2017-02-21T06:00:43.552Z,0
2017-02-21T06:01:24.143Z,0
2017-02-21T06:02:04.715Z,0
2017-02-21T06:02:45.273Z,0
2017-02-21T06:03:25.840Z,0
2017-02-21T06:04:06.404Z,0
2017-02-21T06:04:46.990Z,0
2017-02-21T06:05:27.589Z,0
2017-02-21T06:06:08.147Z,0
2017-02-21T06:06:48.726Z,0
2017-02-21T06:07:29.286Z,0
2017-02-21T06:08:09.854Z,0
2017-02-21T06:08:50.425Z,0
2017-02-21T06:09:30.994Z,0
2017-02-21T06:10:11.588Z,0
2017-02-21T06:10:52.153Z,0
2017-02-21T06:11:32.731Z,0
2017-02-21T06:12:13.317Z,0
2017-02-21T06:12:53.897Z,0
2017-02-21T06:13:34.467Z,0
2017-02-21T06:14:15.039Z,0
2017-02-21T06:14:55.600Z,0
2017-02-21T06:15:36.175Z,0
2017-02-21T06:16:16.760Z,0
2017-02-21T06:16:57.329Z,0
2017-02-21T06:17:37.963Z,0
2017-02-21T06:18:18.565Z,0
2017-02-21T06:18:59.159Z,0
2017-02-21T06:19:39.760Z,0
2017-02-21T06:20:20.340Z,0
2017-02-21T06:21:00.927Z,0
2017-02-21T06:21:41.502Z,0
2017-02-21T06:22:22.079Z,0
2017-02-21T06:23:02.661Z,0
2017-02-21T06:23:43.231Z,0
2017-02-21T06:24:23.807Z,0
2017-02-21T06:25:04.372Z,0
2017-02-21T06:25:44.947Z,0
2017-02-21T06:26:25.518Z,0
2017-02-21T06:27:06.083Z,0
2017-02-21T06:27:46.664Z,0
2017-02-21T06:28:27.252Z,0
2017-02-21T06:29:08.030Z,0
2017-02-21T06:29:48.705Z,0
2017-02-21T06:30:29.364Z,0
2017-02-21T06:31:09.956Z,0
2017-02-21T06:31:50.539Z,0
2017-02-21T06:32:31.156Z,0
2017-02-21T06:33:11.731Z,0
2017-02-21T06:33:52.311Z,0
2017-02-21T06:34:32.889Z,0
2017-02-21T06:35:13.488Z,0
2017-02-21T06:35:54.067Z,0
2017-02-21T06:36:34.632Z,0
2017-02-21T06:37:15.223Z,0
2017-02-21T06:37:55.797Z,0
2017-02-21T06:38:36.365Z,0
2017-02-21T06:39:16.932Z,0
2017-02-21T06:39:57.527Z,0
2017-02-21T06:40:38.098Z,0
2017-02-21T06:41:18.685Z,0
2017-02-21T06:41:59.259Z,0
2017-02-21T06:42:39.820Z,0
2017-02-21T06:43:20.387Z,0
2017-02-21T06:44:00.986Z,0
2017-02-21T06:44:41.561Z,0
2017-02-21T06:45:22.125Z,0
2017-02-21T06:46:02.709Z,0
2017-02-21T06:46:43.284Z,5
2017-02-21T06:47:23.880Z,5
2017-02-21T06:48:04.449Z,5
2017-02-21T06:48:45.013Z,5
2017-02-21T06:49:25.696Z,5
2017-02-21T06:50:06.293Z,5
2017-02-21T06:50:46.870Z,5
2017-02-21T06:51:27.492Z,5
2017-02-21T06:52:08.105Z,5
2017-02-21T06:52:48.697Z,5
2017-02-21T06:53:29.290Z,5
2017-02-21T06:54:09.869Z,5
2017-02-21T06:54:50.442Z,5
2017-02-21T06:55:31.051Z,5
2017-02-21T06:56:11.627Z,5
2017-02-21T06:56:52.212Z,5
2017-02-21T06:57:32.815Z,5
2017-02-21T06:58:13.404Z,5
2017-02-21T06:58:53.978Z,5
2017-02-21T06:59:34.562Z,5
2017-02-21T07:00:15.139Z,5
2017-02-21T07:00:55.755Z,5
2017-02-21T07:01:36.352Z,5
2017-02-21T07:02:16.931Z,5
2017-02-21T07:02:57.504Z,5
2017-02-21T07:03:38.079Z,5
2017-02-21T07:04:18.651Z,5
2017-02-21T07:04:59.238Z,5
2017-02-21T07:05:39.816Z,5
2017-02-21T07:06:20.415Z,5
2017-02-21T07:07:00.990Z,5
2017-02-21T07:07:41.573Z,5
2017-02-21T07:08:22.143Z,5
2017-02-21T07:09:02.744Z,5
2017-02-21T07:09:43.306Z,5
2017-02-21T07:10:23.874Z,5
2017-02-21T07:11:04.456Z,5
2017-02-21T07:11:45.058Z,5
2017-02-21T07:12:25.619Z,5
2017-02-21T07:13:06.189Z,5
2017-02-21T07:13:46.767Z,5
2017-02-21T07:14:27.334Z,10
2017-02-21T07:15:07.911Z,10
2017-02-21T07:15:48.476Z,10
2017-02-21T07:16:29.044Z,10
2017-02-21T07:17:09.649Z,10
2017-02-21T07:17:50.235Z,10
2017-02-21T07:18:30.813Z,10
2017-02-21T07:19:11.390Z,10
2017-02-21T07:19:51.974Z,10
2017-02-21T07:20:32.550Z,10
2017-02-21T07:21:13.124Z,10
2017-02-21T07:21:53.688Z,10
2017-02-21T07:22:34.304Z,5
2017-02-21T07:23:14.871Z,5
2017-02-21T07:23:55.448Z,5
2017-02-21T07:24:36.061Z,5
2017-02-21T07:25:16.630Z,5
2017-02-21T07:25:57.211Z,5
2017-02-21T07:26:37.794Z,5
2017-02-21T07:27:18.426Z,5
2017-02-21T07:27:58.993Z,5
2017-02-21T07:28:39.571Z,5
2017-02-21T07:29:20.146Z,5
2017-02-21T07:30:00.764Z,5
2017-02-21T07:30:41.323Z,10
2017-02-21T07:31:21.887Z,10
2017-02-21T07:32:02.487Z,10
2017-02-21T07:32:43.064Z,10
2017-02-21T07:33:23.649Z,10
2017-02-21T07:34:04.242Z,10
2017-02-21T07:34:44.837Z,10
2017-02-21T07:35:25.404Z,10
2017-02-21T07:36:05.987Z,15
2017-02-21T07:36:46.587Z,15
2017-02-21T07:37:27.163Z,15
2017-02-21T07:38:07.766Z,15
2017-02-21T07:38:48.358Z,15
2017-02-21T07:39:28.929Z,15
2017-02-21T07:40:09.551Z,15
2017-02-21T07:40:50.114Z,15
2017-02-21T07:41:30.688Z,15
2017-02-21T07:42:11.267Z,15
2017-02-21T07:42:51.841Z,20
2017-02-21T07:43:32.437Z,20
2017-02-21T07:44:13.018Z,20
2017-02-21T07:44:53.583Z,20
2017-02-21T07:45:34.152Z,20
2017-02-21T07:46:14.723Z,20
2017-02-21T07:46:55.288Z,20
2017-02-21T07:47:35.868Z,20
2017-02-21T07:48:16.458Z,20
2017-02-21T07:48:57.038Z,20
2017-02-21T07:49:37.636Z,20
2017-02-21T07:50:18.239Z,20
2017-02-21T07:50:58.825Z,15
2017-02-21T07:51:39.394Z,15
2017-02-21T07:52:19.985Z,15
2017-02-21T07:53:00.557Z,15
2017-02-21T07:53:41.146Z,15
2017-02-21T07:54:21.737Z,15
2017-02-21T07:55:02.309Z,10
2017-02-21T07:55:42.884Z,10
2017-02-21T07:56:23.477Z,10
2017-02-21T07:57:04.072Z,15
2017-02-21T07:57:44.657Z,15
2017-02-21T07:58:25.291Z,15
2017-02-21T07:59:05.862Z,10
2017-02-21T07:59:46.439Z,10
2017-02-21T08:00:27.014Z,10
2017-02-21T08:01:07.611Z,10
2017-02-21T08:01:48.190Z,10
2017-02-21T08:02:28.765Z,10
2017-02-21T08:03:09.345Z,10
2017-02-21T08:03:49.909Z,10
2017-02-21T08:04:30.488Z,10
2017-02-21T08:05:11.057Z,10
2017-02-21T08:05:51.623Z,10
2017-02-21T08:06:32.198Z,10
2017-02-21T08:07:12.789Z,10
2017-02-21T08:07:53.381Z,10
2017-02-21T08:08:33.953Z,5
2017-02-21T08:09:14.520Z,5
2017-02-21T08:09:55.091Z,5
2017-02-21T08:10:35.682Z,5
2017-02-21T08:11:16.245Z,5
2017-02-21T08:11:56.818Z,5
2017-02-21T08:12:37.437Z,5
2017-02-21T08:13:18.013Z,5
2017-02-21T08:13:58.595Z,5
2017-02-21T08:14:39.151Z,0
2017-02-21T08:15:19.714Z,0
2017-02-21T08:16:00.291Z,5
2017-02-21T08:16:40.874Z,5
2017-02-21T08:17:21.462Z,5
2017-02-21T08:18:02.092Z,5
2017-02-21T08:18:42.671Z,5
2017-02-21T08:19:23.272Z,5
2017-02-21T08:20:03.859Z,5
2017-02-21T08:20:44.434Z,5
2017-02-21T08:21:25.041Z,5
2017-02-21T08:22:05.618Z,5
2017-02-21T08:22:46.180Z,5
2017-02-21T08:23:26.801Z,5
2017-02-21T08:24:07.380Z,5
2017-02-21T08:24:47.983Z,5
2017-02-21T08:25:28.558Z,10
2017-02-21T08:26:09.132Z,10
2017-02-21T08:26:49.712Z,10
2017-02-21T08:27:30.305Z,10
2017-02-21T08:28:10.920Z,10
2017-02-21T08:28:51.493Z,5
2017-02-21T08:29:32.062Z,5
2017-02-21T08:30:12.645Z,5
2017-02-21T08:30:53.221Z,5
2017-02-21T08:31:33.792Z,5
2017-02-21T08:32:14.428Z,5
2017-02-21T08:32:55.016Z,5
2017-02-21T08:33:35.599Z,5
2017-02-21T08:34:16.177Z,5
2017-02-21T08:34:56.769Z,5
2017-02-21T08:35:37.362Z,5
2017-02-21T08:36:17.952Z,5
2017-02-21T08:36:58.528Z,5
2017-02-21T08:37:39.093Z,5
2017-02-21T08:38:19.656Z,5
2017-02-21T08:39:00.235Z,10
2017-02-21T08:39:40.826Z,10
2017-02-21T08:40:21.397Z,10
2017-02-21T08:41:01.980Z,5
2017-02-21T08:41:42.562Z,10
2017-02-21T08:42:23.180Z,10
2017-02-21T08:43:03.762Z,10
2017-02-21T08:43:44.338Z,10
2017-02-21T08:44:24.921Z,10
2017-02-21T08:45:05.494Z,10
2017-02-21T08:45:46.078Z,10
2017-02-21T08:46:26.660Z,10
2017-02-21T08:47:07.219Z,10
2017-02-21T08:47:47.841Z,15
2017-02-21T08:48:28.435Z,15
2017-02-21T08:49:09.002Z,15
2017-02-21T08:49:49.583Z,15
2017-02-21T08:50:30.166Z,15
2017-02-21T08:51:10.734Z,15
2017-02-21T08:51:51.299Z,15
2017-02-21T08:52:31.893Z,15
2017-02-21T08:53:12.483Z,20
2017-02-21T08:53:53.058Z,15
2017-02-21T08:54:33.648Z,15
2017-02-21T08:55:14.226Z,15
2017-02-21T08:55:54.798Z,20
2017-02-21T08:56:35.385Z,20
2017-02-21T08:57:15.967Z,20
2017-02-21T08:57:56.534Z,20
2017-02-21T08:58:37.140Z,25
2017-02-21T08:59:17.701Z,25
2017-02-21T08:59:58.296Z,20
2017-02-21T09:00:38.870Z,20
2017-02-21T09:01:19.480Z,20
2017-02-21T09:02:00.069Z,15
2017-02-21T09:02:40.645Z,15
2017-02-21T09:03:21.251Z,15
2017-02-21T09:04:01.824Z,15
2017-02-21T09:04:42.396Z,10
2017-02-21T09:05:22.987Z,15
2017-02-21T09:06:03.564Z,15
2017-02-21T09:06:44.158Z,20
2017-02-21T09:07:24.724Z,20
2017-02-21T09:08:05.307Z,20
2017-02-21T09:08:45.885Z,20
2017-02-21T09:09:26.436Z,20
2017-02-21T09:10:07.013Z,20
2017-02-21T09:10:47.584Z,20
2017-02-21T09:11:28.208Z,20
2017-02-21T09:12:08.805Z,25
2017-02-21T09:12:49.491Z,20
2017-02-21T09:13:30.010Z,15
2017-02-21T09:14:10.631Z,15
2017-02-21T09:14:51.216Z,15
2017-02-21T09:15:31.803Z,15
2017-02-21T09:16:12.434Z,15
2017-02-21T09:16:53.022Z,15
2017-02-21T09:17:33.601Z,15
2017-02-21T09:18:14.172Z,15
2017-02-21T09:18:54.784Z,15
2017-02-21T09:19:35.364Z,15
2017-02-21T09:20:15.942Z,15
2017-02-21T09:20:56.511Z,15
2017-02-21T09:21:37.083Z,15
2017-02-21T09:22:17.654Z,20
2017-02-21T09:22:58.224Z,20
2017-02-21T09:23:38.835Z,20
2017-02-21T09:24:19.395Z,25
2017-02-21T09:24:59.977Z,25
2017-02-21T09:25:40.570Z,25
2017-02-21T09:26:21.143Z,30
2017-02-21T09:27:01.725Z,30
2017-02-21T09:27:42.354Z,35
2017-02-21T09:28:22.957Z,35
2017-02-21T09:29:03.519Z,35
2017-02-21T09:29:44.084Z,35
2017-02-21T09:30:24.655Z,35
2017-02-21T09:31:05.236Z,35
2017-02-21T09:31:45.819Z,30
2017-02-21T09:32:26.398Z,30
2017-02-21T09:33:07.033Z,30
2017-02-21T09:33:47.587Z,30
2017-02-21T09:34:28.167Z,30
2017-02-21T09:35:08.746Z,30
2017-02-21T09:35:49.342Z,30
2017-02-21T09:36:29.919Z,30
2017-02-21T09:37:10.500Z,30
2017-02-21T09:37:51.089Z,30
2017-02-21T09:38:31.658Z,30
2017-02-21T09:39:12.228Z,35
2017-02-21T09:39:52.801Z,35
2017-02-21T09:40:33.399Z,40
2017-02-21T09:41:13.974Z,45
2017-02-21T09:41:54.536Z,45
2017-02-21T09:42:35.145Z,50
2017-02-21T09:43:15.758Z,50
2017-02-21T09:43:56.333Z,50
2017-02-21T09:44:36.896Z,45
2017-02-21T09:45:17.486Z,40
2017-02-21T09:45:58.102Z,45
2017-02-21T09:46:38.670Z,45
2017-02-21T09:47:19.244Z,45
2017-02-21T09:47:59.812Z,45
2017-02-21T09:48:40.396Z,35
2017-02-21T09:49:20.979Z,35
2017-02-21T09:50:01.551Z,30
2017-02-21T09:50:42.125Z,30
2017-02-21T09:51:22.705Z,30
2017-02-21T09:52:03.309Z,40
2017-02-21T09:52:43.890Z,45
2017-02-21T09:53:24.442Z,50
2017-02-21T09:54:05.030Z,50
2017-02-21T09:54:45.608Z,45
2017-02-21T09:55:26.192Z,45
2017-02-21T09:56:06.749Z,40
2017-02-21T09:56:47.339Z,40
2017-02-21T09:57:27.957Z,45